Station: Maitland

  Atmospheric Gas Attenuation - ITU Rec 676-11   --------------- db/100km ---------------
Date Time Temp RH % AH g/m3 Dew Point Wind Direction Speed kph Gust kph Barometer mB Rainfall Since 9am 24GHz 47GHz 76GHz 122GHz 134GHz 241GHz
16 09:00 11 87 8.71 9 4 1025.1 0 19.9 27.4 42.2 110.8 104.6 359.5
15 09:00 9 80 7.06 5.7 4 1023.7 0 16.5 25.2 36.3 95.0 84.4 288.6
13 09:00 10.5 81 7.86 7.4 4 1028.2 1 18.1 26.2 39.1 102.3 93.8 321.7
11 09:00 9.5 80 7.28 6.3 4 1016.8 9 17.0 25.1 36.7 96.1 86.3 295.4
08 09:00 8.5 93 7.94 7.4 4 1027.5 0 18.4 26.9 40.4 105.8 97.3 333.8
07 09:00 9 80 7.06 5.7 4 1032.1 0 16.5 25.5 36.7 95.8 85.0 290.6
06 09:00 9.5 80 7.28 6.3 4 1034 0 16.9 25.8 37.4 97.8 87.5 299.6
03 09:00 11 87 8.71 9 4 1024.5 2 20.0 27.3 42.2 110.7 104.5 359.4
02 09:00 10 80 7.52 6.8 4 1017.8 7 17.4 25.4 37.5 98.2 89.0 304.9
01 09:00 11 75 7.51 6.8 9 1010.9 0 17.4 24.8 36.7 96.1 87.2 298.9
30 09:00 9.5 80 7.28 6.3 9 1014.7 0 17.0 25.0 36.6 95.9 86.1 294.8
29 09:00 9 87 7.67 6.9 4 1024.1 0 17.8 26.2 38.9 101.7 92.7 317.7
26 09:00 12 76 8.1 7.9 4 1027.2 0 18.6 26.1 39.3 102.9 95.1 326.6
24 09:00 9.5 80 7.28 6.3 4 1021.2 0 17.0 25.3 36.9 96.5 86.6 296.4
23 09:00 10.5 87 8.44 8.5 4 1022.6 0 19.4 27.0 41.3 108.2 101.3 348.0
22 09:00 11 87 8.71 9 4 1020.2 10 20.0 27.2 42.0 110.2 104.1 358.1
20 09:00 11 75 7.51 6.8 4 1019 2 17.4 25.1 37.0 96.9 87.8 300.9
19 09:00 13 82 9.3 10.1 9 1018.3 0 21.1 27.5 43.3 113.8 109.3 376.6
18 09:00 12 88 9.38 10.1 4 1028.3 0 21.3 28.3 44.7 117.3 112.8 388.5
17 09:00 12 88 9.38 10.1 4 1032.7 0.8 21.3 28.5 44.9 117.8 113.2 389.8
16 09:00 13 82 9.3 10.1 4 1026.3 2 21.1 27.8 43.7 114.7 110.1 379.0
15 09:00 13.5 82 9.59 10.6 9 1023.3 14 21.7 28.0 44.5 116.8 113.1 389.7
11 09:00 10 87 8.18 7.9 4 1025 0 18.9 26.8 40.5 106.2 98.5 338.3
10 09:00 7 93 7.21 5.9 4 1027.8 0 16.9 26.1 38.1 99.5 89.0 304.3
09 09:00 7.5 79 6.33 4.1 4 1030.4 0 15.0 24.6 34.3 89.5 76.6 261.1
05 09:00 10 87 8.18 7.9 4 1030.1 0 18.9 27.0 40.8 106.7 98.9 339.7
03 09:00 11.5 82 8.47 8.5 4 1033.1 4 19.4 27.1 41.3 108.2 101.3 347.9
02 09:00 12 88 9.38 10.1 4 1025.7 7 21.3 28.2 44.6 117.0 112.6 387.7
01 09:00 10.5 81 7.86 7.4 4 1019.2 13 18.2 25.9 38.7 101.4 93.1 319.3
29 09:00 12.5 82 9.02 9.6 4 1025.6 0 20.5 27.5 42.8 112.2 106.8 367.7
28 09:00 12 82 8.74 9 4 1023.8 1 20.0 27.1 41.8 109.6 103.5 356.0
27 09:00 10.5 81 7.86 7.4 4 1019.9 0.4 18.2 25.9 38.7 101.4 93.1 319.5
26 09:00 10.5 81 7.86 7.4 4 1019.4 0 18.2 25.9 38.7 101.4 93.1 319.4
24 09:00 11.5 87 8.99 9.5 4 1026.8 1 20.5 27.8 43.2 113.4 107.9 371.3
23 09:00 11.5 82 8.47 8.5 4 1024.2 5 19.4 26.8 40.9 107.3 100.5 345.5
22 09:00 11.5 82 8.47 8.5 4 1025.1 0 19.4 26.8 41.0 107.4 100.6 345.7
21 09:00 12 82 8.74 9 9 1024.9 11 20.0 27.1 41.8 109.7 103.6 356.3
19 09:00 16.5 84 11.79 13.9 4 1018.2 0 26.3 30.6 51.8 136.4 138.5 479.1
18 09:00 15 84 10.77 12.3 9 1025.7 0 24.1 29.6 48.7 128.1 127.4 440.1
15 09:00 12 82 8.74 9 4 1030.4 0 20.0 27.3 42.1 110.3 104.1 357.9
11 09:00 12.5 82 9.02 9.6 4 1029.7 0 20.5 27.6 43.0 112.6 107.2 368.9
10 09:00 12 88 9.38 10.1 4 1028 3 21.3 28.3 44.7 117.2 112.8 388.4
09 09:00 12.5 82 9.02 9.6 15 1017.6 7 20.5 27.1 42.4 111.3 106.1 365.3
07 09:00 18 80 12.29 14.6 9 1011.3 0 27.2 30.7 52.6 138.7 142.1 491.8
06 09:00 13.5 82 9.59 10.6 9 1021 0 21.7 27.9 44.4 116.6 112.9 389.0
04 09:00 12.5 82 9.02 9.6 4 1030 1 20.5 27.6 43.0 112.6 107.2 369.0
02 09:00 14.5 83 10.32 11.7 4 1018.7 15 23.2 28.7 46.8 123.0 121.3 418.5
01 09:00 13 77 8.73 9.1 9 1018.3 1 19.9 26.5 41.0 107.5 101.6 349.5
30 09:00 11.5 82 8.47 8.5 4 1017.3 4 19.4 26.5 40.6 106.6 99.9 343.5
29 09:00 12.5 88 9.68 10.6 7 1008.6 6 22.0 27.9 44.7 117.7 114.4 394.5
28 09:00 16 90 12.26 14.3 4 1014.3 0 27.3 31.4 54.0 142.3 145.8 504.4
27 09:00 13.5 77 9.01 9.6 4 1024.5 0 20.5 27.1 42.1 110.5 105.2 362.2
26 09:00 16 90 12.26 14.3 4 1020.3 27 27.3 31.7 54.3 143.1 146.5 506.7
23 09:00 16.5 84 11.79 13.9 4 1018.8 4 26.3 30.6 51.8 136.5 138.6 479.3
22 09:00 16.5 90 12.64 14.8 4 1022.1 0 28.1 32.3 55.8 146.9 151.2 523.4
21 09:00 17.5 75 11.18 13.1 9 1017.1 0 24.9 29.2 48.5 127.7 128.1 442.9
20 09:00 16.5 79 11.09 12.9 4 1013.6 6 24.8 29.2 48.6 127.9 128.2 443.1
17 09:00 16 74 10.08 11.4 4 1020.9 0.8 22.6 27.9 45.0 118.3 115.8 399.7
16 09:00 18.5 76 12.02 14.2 4 1016.3 0 26.6 30.2 51.4 135.3 137.9 477.3
14 09:00 22 43 8.34 8.9 4 1021.4 0 18.6 23.6 35.3 92.5 86.2 296.7
09 09:00 16.5 74 10.39 11.9 4 1025.2 0 23.2 28.5 46.2 121.4 119.7 413.3
08 09:00 15 68 8.72 9.2 9 1024.8 0 19.8 26.2 40.2 105.3 99.4 342.0
06 09:00 17 75 10.85 12.5 4 1023.2 3 24.2 29.0 47.7 125.5 125.0 431.9
05 09:00 15.5 84 11.1 12.8 9 1017.4 4 24.8 29.7 49.4 130.1 130.4 450.7
04 09:00 14 83 10.01 11.2 9 1010.9 19 22.6 28.1 45.4 119.4 117.0 403.5
02 09:00 16.5 84 11.79 13.9 4 1012.1 0.8 26.3 30.3 51.5 135.7 137.9 476.8
31 09:00 14.5 83 10.32 11.7 4 1018.5 0 23.2 28.7 46.8 123.0 121.2 418.4
30 09:00 16 84 11.44 13.3 4 1016.4 0.8 25.5 30.1 50.5 133.0 134.3 464.1
27 09:00 16.5 60 8.42 8.8 4 1021.9 0 19.1 25.2 38.2 100.0 93.4 321.4
26 09:00 13 77 8.73 9.1 9 1026.2 0 19.9 26.8 41.3 108.3 102.2 351.7
25 09:00 14 78 9.41 10.2 4 1024.6 0 21.3 27.6 43.5 114.2 110.0 378.9
24 09:00 16.5 84 11.79 13.9 4 1022.1 0 26.2 30.7 52.0 136.9 138.9 480.5
23 09:00 14.5 83 10.32 11.7 9 1027.2 0 23.2 29.1 47.2 124.0 122.1 421.2
20 09:00 18 85 13.05 15.5 4 1021.9 0 28.8 32.4 56.5 148.9 154.2 533.9
19 09:00 28 77 20.94 23.7 9 1018.2 0 44.7 42.5 83.5 221.1 246.2 855.5
17 09:00 24.5 79 17.68 20.7 4 1020.7 0 38.2 38.1 72.0 190.2 207.2 719.4
16 09:00 17.5 90 13.42 15.8 4 1022.5 0 29.7 33.3 58.5 154.4 160.7 556.6
13 09:00 19 80 13.04 15.6 4 1017.4 0 28.8 31.8 55.5 146.3 151.5 524.7
12 09:00 26 80 19.48 22.3 4 1015.3 0 41.9 40.6 78.6 207.8 229.5 797.2
11 09:00 23 70 14.39 17.4 4 1015.1 0 31.3 32.6 58.3 153.8 162.1 562.3
10 09:00 19 67 10.92 12.8 4 1017.2 0 24.2 28.2 46.5 122.4 122.2 422.3
06 09:00 17 70 10.13 11.5 4 1018.3 0 22.7 27.6 44.5 117.0 114.8 396.2
04 09:00 18 85 13.05 15.5 4 1013.5 1 28.9 32.1 56.0 147.8 153.2 530.6
03 09:00 15.5 84 11.1 12.8 9 1017.9 0 24.8 29.7 49.5 130.2 130.5 450.8
02 09:00 15.5 73 9.65 10.8 4 1018.4 2 21.7 27.3 43.4 114.0 110.5 381.2
28 09:00 18 80 12.29 14.6 4 1018.8 0 27.2 31.0 53.0 139.6 142.9 494.6
26 09:00 19 67 10.92 12.8 4 1015.1 0 24.3 28.2 46.4 122.2 122.0 421.6
25 09:00 20 77 13.31 15.8 4 1014.6 0 29.3 31.8 55.8 147.1 153.0 530.2
24 09:00 27.5 73 19.31 22.3 4 1016.2 0 41.3 39.6 76.3 201.8 222.5 773.1
21 09:00 15.5 84 11.1 12.8 4 1021.2 0 24.8 29.9 49.6 130.6 130.8 452.0
19 09:00 16.5 84 11.79 13.9 4 1018.6 0 26.3 30.6 51.8 136.5 138.6 479.2
18 09:00 19 76 12.38 14.7 15 1015.1 0 27.4 30.6 52.5 138.4 141.9 491.3
17 09:00 20 77 13.31 15.8 4 1012.8 0 29.3 31.8 55.7 146.9 152.8 529.5
14 09:00 18 80 12.29 14.6 4 928.6 0 27.5 27.5 48.4 128.4 133.1 460.9
12 09:00 19 80 13.04 15.6 4 1015.4 0 28.8 31.8 55.4 146.0 151.3 523.9
11 09:00 21.5 78 14.71 17.5 4 1013.2 0 32.1 33.7 60.7 160.3 169.7 588.6
10 09:00 26.5 76 19.03 22 4 1009.7 0 40.9 39.2 75.6 200.0 220.2 765.1
07 09:00 23 70 14.39 17.4 4 1017.5 0 31.3 32.7 58.4 154.1 162.4 563.3
06 09:00 21 65 11.91 14.2 4 1017.1 0 26.2 29.2 49.3 130.0 132.1 457.4
05 09:00 18 80 12.29 14.6 4 1018.8 0 27.2 31.0 53.0 139.6 142.9 494.6

Last Refresh: 17-Jul-2020 03:04:07

Most of the information presented on this site is sourced from the Bureau of Meteorology.  Copyright in all material sourced from the Bureau of Meteorology resides with the Commonwealth of Australia.